Time;durP1;ratioP1;P1;durP2;ratioP2;P2;SDS_P1;SDS_P2;PMS_P1;PMS_P2;Temp;Humidity;BMP_temperature;BMP_pressure;BME280_temperature;BME280_humidity;BME280_pressure;Samples;Min_cycle;Max_cycle;Signal;HPM_P1;HPM_P2
2021/10/28 00:14:29;;;;;;;4.03;2.97;;;22.40;43.60;;;;;;5051284;28;20496;-63
2021/10/28 00:16:57;;;;;;;4.20;3.30;;;22.40;43.50;;;;;;5051307;28;20389;-63
2021/10/28 00:19:23;;;;;;;4.43;3.30;;;22.40;43.50;;;;;;5050940;28;20763;-63
2021/10/28 00:21:49;;;;;;;4.05;3.03;;;22.40;43.60;;;;;;5051116;28;20392;-79
2021/10/28 00:24:16;;;;;;;4.40;3.10;;;22.30;43.60;;;;;;5050907;28;20406;-63
2021/10/28 00:26:46;;;;;;;3.90;2.90;;;22.40;44.10;;;;;;5050644;28;20455;-79
2021/10/28 00:29:15;;;;;;;4.10;3.00;;;22.40;43.50;;;;;;5050898;28;20416;-65
2021/10/28 00:31:42;;;;;;;3.70;3.00;;;22.30;43.50;;;;;;5050818;28;20409;-63
2021/10/28 00:34:09;;;;;;;4.57;2.95;;;22.30;43.50;;;;;;5053122;28;20396;-63
2021/10/28 00:36:36;;;;;;;4.43;3.13;;;22.30;43.50;;;;;;5054684;28;20394;-79
2021/10/28 00:39:04;;;;;;;3.80;2.97;;;22.30;43.50;;;;;;5052941;28;20393;-79
2021/10/28 00:41:29;;;;;;;4.40;3.42;;;22.30;43.40;;;;;;5054448;28;20924;-63
2021/10/28 00:43:57;;;;;;;4.05;2.90;;;22.30;43.30;;;;;;5054546;28;20378;-80
2021/10/28 00:46:25;;;;;;;4.50;3.60;;;22.30;43.10;;;;;;5054563;28;20382;-63
2021/10/28 00:48:51;;;;;;;6.40;4.25;;;22.30;43.30;;;;;;5054355;28;20433;-63
2021/10/28 00:51:22;;;;;;;6.03;4.15;;;22.30;43.40;;;;;;5054383;28;20457;-79
2021/10/28 00:53:48;;;;;;;7.68;5.20;;;22.20;43.20;;;;;;5054149;28;20381;-63
2021/10/28 00:56:15;;;;;;;8.13;5.65;;;22.20;43.00;;;;;;5054360;28;20404;-79
2021/10/28 00:58:40;;;;;;;6.82;4.88;;;22.20;43.20;;;;;;5054208;28;20409;-63
2021/10/28 01:01:07;;;;;;;5.15;3.80;;;22.20;43.10;;;;;;5053822;28;20863;-62
2021/10/28 01:03:34;;;;;;;5.35;3.50;;;22.20;43.00;;;;;;5053780;28;20388;-63
2021/10/28 01:06:01;;;;;;;5.55;3.88;;;22.20;42.90;;;;;;5053812;28;20402;-62
2021/10/28 01:08:27;;;;;;;4.75;3.60;;;22.20;43.10;;;;;;5053958;28;20859;-63
2021/10/28 01:10:53;;;;;;;5.20;3.78;;;22.20;42.80;;;;;;5053858;28;20497;-63
2021/10/28 01:13:22;;;;;;;5.35;3.55;;;22.20;43.20;;;;;;5053928;28;20834;-78
2021/10/28 01:15:48;;;;;;;6.07;3.85;;;22.10;43.50;;;;;;5053714;28;20432;-63
2021/10/28 01:18:16;;;;;;;4.68;3.70;;;22.10;43.00;;;;;;5053848;28;20390;-78
2021/10/28 01:20:44;;;;;;;4.25;3.35;;;22.10;42.80;;;;;;5053515;28;20805;-63
2021/10/28 01:23:11;;;;;;;6.00;3.50;;;22.10;42.80;;;;;;5053766;28;20381;-64
2021/10/28 01:25:39;;;;;;;5.75;3.47;;;22.10;42.90;;;;;;5053251;28;20397;-79
2021/10/28 01:28:15;;;;;;;4.18;2.90;;;22.10;43.10;;;;;;5052406;28;20389;-70
2021/10/28 01:30:45;;;;;;;4.45;3.40;;;22.10;43.00;;;;;;5053341;28;20899;-77
2021/10/28 01:33:10;;;;;;;4.40;3.10;;;22.10;42.70;;;;;;5053682;28;20382;-63
2021/10/28 01:35:36;;;;;;;4.97;3.15;;;22.10;42.80;;;;;;5053374;28;20443;-63
2021/10/28 01:38:02;;;;;;;3.67;3.00;;;22.10;42.90;;;;;;5035604;28;20390;-79
2021/10/28 01:40:27;;;;;;;4.20;3.22;;;22.00;42.80;;;;;;5052869;28;20389;-63
2021/10/28 01:42:53;;;;;;;5.07;3.03;;;22.00;42.70;;;;;;5052852;28;20420;-63
2021/10/28 01:45:20;;;;;;;4.15;2.78;;;22.00;42.60;;;;;;5053112;28;20389;-65
2021/10/28 01:47:46;;;;;;;4.13;3.25;;;22.00;42.90;;;;;;5053177;28;20385;-79
2021/10/28 01:50:12;;;;;;;3.70;3.00;;;22.00;42.50;;;;;;5053097;28;20868;-63
2021/10/28 01:52:40;;;;;;;4.35;3.20;;;22.00;42.80;;;;;;5053107;28;20377;-63
2021/10/28 01:55:14;;;;;;;4.45;3.15;;;22.00;42.60;;;;;;5052755;28;20409;-63
2021/10/28 01:57:42;;;;;;;3.88;2.70;;;22.00;43.20;;;;;;5053009;28;20720;-62
2021/10/28 02:00:22;;;;;;;4.10;2.95;;;22.00;42.60;;;;;;5051786;28;20401;-63
2021/10/28 02:02:51;;;;;;;3.65;2.80;;;21.90;42.80;;;;;;5053008;28;20393;-63
2021/10/28 02:05:22;;;;;;;4.38;2.95;;;21.90;42.40;;;;;;5052980;28;20385;-63
2021/10/28 02:07:48;;;;;;;3.80;2.70;;;21.90;43.30;;;;;;5052768;28;20871;-63
2021/10/28 02:10:15;;;;;;;3.15;2.58;;;21.90;42.90;;;;;;5052633;28;20416;-62
2021/10/28 02:12:41;;;;;;;3.30;2.55;;;21.90;42.50;;;;;;5052755;28;20456;-63
2021/10/28 02:15:09;;;;;;;3.58;2.75;;;21.90;42.70;;;;;;5052700;28;20382;-63
2021/10/28 02:17:36;;;;;;;3.22;2.53;;;21.90;42.60;;;;;;5052639;28;20400;-77
2021/10/28 02:20:11;;;;;;;3.25;2.38;;;21.90;42.50;;;;;;5052553;28;20445;-63
2021/10/28 02:22:37;;;;;;;3.72;2.50;;;21.90;42.50;;;;;;5052787;28;20377;-63
2021/10/28 02:25:06;;;;;;;3.40;2.70;;;21.90;42.50;;;;;;5052602;28;20412;-63
2021/10/28 02:27:32;;;;;;;2.92;2.40;;;21.90;42.50;;;;;;5052488;28;20381;-63
2021/10/28 02:29:58;;;;;;;3.45;2.42;;;21.90;42.30;;;;;;5052422;28;20401;-78
2021/10/28 02:32:23;;;;;;;3.05;2.25;;;21.90;42.50;;;;;;5052706;28;20882;-78
2021/10/28 02:34:50;;;;;;;3.13;2.30;;;21.90;42.50;;;;;;5052341;28;20810;-63
2021/10/28 02:37:17;;;;;;;3.20;2.50;;;21.80;42.40;;;;;;5052444;28;20477;-79
2021/10/28 02:39:43;;;;;;;3.10;2.47;;;21.80;42.70;;;;;;5052440;28;20436;-75
2021/10/28 02:42:08;;;;;;;3.13;2.40;;;21.80;42.30;;;;;;5052368;28;20421;-63
2021/10/28 02:44:34;;;;;;;3.20;2.58;;;21.80;42.20;;;;;;5034497;28;20823;-63
2021/10/28 02:46:59;;;;;;;2.73;2.20;;;21.80;42.20;;;;;;5052132;28;20498;-63
2021/10/28 02:49:26;;;;;;;3.08;2.40;;;21.80;42.40;;;;;;5052170;28;20450;-63
2021/10/28 02:51:52;;;;;;;2.88;2.40;;;21.80;42.40;;;;;;5034526;28;20910;-63
2021/10/28 02:54:20;;;;;;;3.10;2.40;;;21.80;42.30;;;;;;5052098;28;20611;-63
2021/10/28 02:56:46;;;;;;;3.58;2.33;;;21.80;42.40;;;;;;5049743;28;20394;-63
2021/10/28 02:59:12;;;;;;;3.30;2.60;;;21.70;42.30;;;;;;5051687;28;20408;-63
2021/10/28 03:01:49;;;;;;;3.00;2.00;;;21.70;42.30;;;;;;5051861;28;20397;-65
2021/10/28 03:04:17;;;;;;;3.13;2.00;;;21.70;43.10;;;;;;5052128;28;20871;-78
2021/10/28 03:06:43;;;;;;;5.47;2.13;;;21.80;43.20;;;;;;5051726;28;20397;-78
2021/10/28 03:09:28;;;;;;;3.80;2.40;;;21.90;44.00;;;;;;5051899;28;20468;-63
2021/10/28 03:11:57;;;;;;;4.13;1.90;;;22.00;44.10;;;;;;5051694;28;20413;-63
2021/10/28 03:14:51;;;;;;;4.28;2.20;;;22.10;44.20;;;;;;5050498;28;20396;-71
2021/10/28 03:27:39;;;;;;;4.47;2.10;;;22.50;45.60;;;;;;5051306;28;20376;-63
2021/10/28 03:30:06;;;;;;;6.82;2.28;;;22.50;45.70;;;;;;5051653;28;20411;-77
2021/10/28 03:32:32;;;;;;;9.32;2.10;;;22.60;46.60;;;;;;5051314;28;20405;-63
2021/10/28 03:34:58;;;;;;;8.80;2.63;;;22.60;46.30;;;;;;5033657;28;20392;-77
2021/10/28 03:37:34;;;;;;;7.50;2.15;;;22.70;45.40;;;;;;5051950;28;20874;-62
2021/10/28 04:01:46;;;;;;;3.42;1.90;;;22.90;44.70;;;;;;5016941;28;20454;-71
2021/10/28 04:07:25;;;;;;;3.57;1.70;;;22.80;44.50;;;;;;5062502;28;20394;-62
2021/10/28 04:28:56;;;;;;;6.90;1.80;;;22.90;43.90;;;;;;5084865;28;20399;-72
2021/10/28 04:31:27;;;;;;;4.97;1.85;;;23.00;44.80;;;;;;5077229;28;20465;-74
2021/10/28 04:33:53;;;;;;;7.15;1.85;;;23.00;43.70;;;;;;5084690;28;20382;-68
2021/10/28 04:36:19;;;;;;;5.82;1.83;;;23.00;43.90;;;;;;5087296;28;20382;-62
2021/10/28 04:38:45;;;;;;;6.32;1.67;;;23.10;44.00;;;;;;5075101;28;20383;-65
2021/10/28 04:41:11;;;;;;;5.95;2.00;;;23.10;44.10;;;;;;5074793;28;20398;-78
2021/10/28 04:43:37;;;;;;;5.50;1.80;;;23.10;43.30;;;;;;5074503;28;20388;-77
2021/10/28 04:46:03;;;;;;;5.57;1.60;;;23.10;43.60;;;;;;5074482;28;20741;-63
2021/10/28 04:48:29;;;;;;;7.15;2.30;;;23.10;43.60;;;;;;5056862;28;20843;-80
2021/10/28 04:50:55;;;;;;;7.00;1.80;;;23.10;43.10;;;;;;5074477;28;20447;-79
2021/10/28 04:53:21;;;;;;;4.10;1.50;;;23.10;43.10;;;;;;5074476;28;20775;-79
2021/10/28 04:55:47;;;;;;;5.38;1.75;;;23.10;43.40;;;;;;5074432;28;20761;-79
2021/10/28 04:58:12;;;;;;;5.43;1.67;;;23.10;42.90;;;;;;5074115;28;20379;-64
2021/10/28 05:00:38;;;;;;;4.17;1.80;;;23.10;43.00;;;;;;5074261;28;20396;-64
2021/10/28 05:03:03;;;;;;;4.97;1.70;;;23.10;42.80;;;;;;5073975;28;20450;-64
2021/10/28 05:05:29;;;;;;;5.03;1.80;;;23.00;42.20;;;;;;5074135;28;20766;-78
2021/10/28 05:07:55;;;;;;;5.10;1.70;;;23.00;42.50;;;;;;5076947;28;20376;-79
2021/10/28 05:10:20;;;;;;;4.68;1.70;;;23.10;42.60;;;;;;5074244;28;20499;-79
2021/10/28 05:12:46;;;;;;;5.10;1.57;;;23.10;42.20;;;;;;5073931;28;20391;-77
2021/10/28 05:15:11;;;;;;;3.50;1.48;;;23.10;42.40;;;;;;5074060;28;20930;-78
2021/10/28 05:17:38;;;;;;;2.93;1.50;;;23.00;42.40;;;;;;5073922;28;20449;-64
2021/10/28 05:20:04;;;;;;;3.83;1.38;;;23.00;42.30;;;;;;5073164;28;20769;-63
2021/10/28 05:22:30;;;;;;;3.03;1.58;;;23.00;42.30;;;;;;5073857;28;20900;-64
2021/10/28 05:24:56;;;;;;;2.67;1.58;;;23.00;41.90;;;;;;5073913;28;20396;-64
2021/10/28 05:27:22;;;;;;;3.83;1.60;;;22.90;42.00;;;;;;5073472;28;20897;-63
2021/10/28 05:29:48;;;;;;;4.30;1.40;;;23.00;42.10;;;;;;5072661;28;20501;-63
2021/10/28 05:32:13;;;;;;;3.67;1.30;;;23.00;42.00;;;;;;5055472;28;20407;-63
2021/10/28 05:34:39;;;;;;;3.08;1.40;;;23.00;41.90;;;;;;5073587;28;20476;-63
2021/10/28 05:37:05;;;;;;;3.27;1.27;;;23.00;41.80;;;;;;5073650;28;20498;-64
2021/10/28 05:39:31;;;;;;;2.58;1.50;;;23.00;41.70;;;;;;5073649;28;20449;-63
2021/10/28 05:41:57;;;;;;;2.30;1.33;;;23.00;41.60;;;;;;5055456;28;20984;-63
2021/10/28 05:44:22;;;;;;;3.00;1.50;;;23.00;41.50;;;;;;5073498;28;20938;-64
2021/10/28 05:46:48;;;;;;;2.28;1.30;;;23.00;41.50;;;;;;5073070;28;20896;-64
2021/10/28 05:49:14;;;;;;;2.90;1.23;;;23.00;41.40;;;;;;5073355;28;20422;-63
2021/10/28 05:51:40;;;;;;;1.63;1.20;;;23.00;41.40;;;;;;5073048;28;20473;-64
2021/10/28 05:54:06;;;;;;;3.45;1.33;;;23.00;41.40;;;;;;5073216;28;20387;-64
2021/10/28 05:56:32;;;;;;;3.00;1.52;;;23.00;41.30;;;;;;5073125;28;20486;-63
2021/10/28 05:58:58;;;;;;;2.30;1.23;;;23.00;41.40;;;;;;5072795;28;20475;-63
2021/10/28 06:01:24;;;;;;;1.90;1.30;;;22.90;41.50;;;;;;5073027;28;20388;-63
2021/10/28 06:03:50;;;;;;;1.70;1.20;;;22.90;41.20;;;;;;5072977;28;20413;-63
2021/10/28 06:06:16;;;;;;;1.70;1.20;;;23.00;41.40;;;;;;5072947;28;20966;-64
2021/10/28 06:08:41;;;;;;;1.77;1.20;;;22.90;41.30;;;;;;5072917;28;20387;-64
2021/10/28 06:11:07;;;;;;;2.63;1.20;;;22.90;41.40;;;;;;5072776;28;20472;-63
2021/10/28 06:13:41;;;;;;;2.53;1.30;;;22.90;41.20;;;;;;5072920;28;20789;-63
2021/10/28 06:16:07;;;;;;;2.15;1.40;;;22.90;41.30;;;;;;5072736;28;20379;-64
2021/10/28 06:20:58;;;;;;;1.90;1.17;;;22.90;41.40;;;;;;5072583;28;20407;-63
2021/10/28 06:23:24;;;;;;;2.43;1.20;;;22.90;41.30;;;;;;5072703;28;20411;-63
2021/10/28 06:25:50;;;;;;;1.67;1.10;;;22.90;41.30;;;;;;5072532;28;20868;-64
2021/10/28 06:28:15;;;;;;;1.75;1.30;;;22.90;41.40;;;;;;5072517;28;20438;-63
2021/10/28 06:30:41;;;;;;;1.50;1.20;;;22.90;42.00;;;;;;5071801;28;20451;-63
2021/10/28 06:33:14;;;;;;;1.60;1.10;;;22.80;41.40;;;;;;5072344;28;20399;-63
2021/10/28 06:35:42;;;;;;;1.95;1.17;;;22.80;41.40;;;;;;5072337;28;20482;-64
2021/10/28 06:38:08;;;;;;;1.33;1.00;;;22.90;41.50;;;;;;5072427;28;20506;-63
2021/10/28 06:40:36;;;;;;;1.80;1.07;;;22.80;41.40;;;;;;5072339;28;20893;-63
2021/10/28 06:43:02;;;;;;;1.65;1.35;;;22.90;41.40;;;;;;5072019;28;20396;-63
2021/10/28 06:45:28;;;;;;;1.42;1.13;;;22.90;41.30;;;;;;5071581;28;20940;-63
2021/10/28 06:47:53;;;;;;;2.20;1.10;;;22.90;41.40;;;;;;5071755;28;20479;-63
2021/10/28 06:50:20;;;;;;;1.52;1.13;;;22.90;41.40;;;;;;5072063;28;20408;-64
2021/10/28 06:55:12;;;;;;;1.30;1.00;;;22.80;41.30;;;;;;5071962;28;20391;-64
2021/10/28 07:03:18;;;;;;;1.83;0.90;;;22.80;41.20;;;;;;5072089;28;20379;-64
2021/10/28 07:05:44;;;;;;;1.48;1.20;;;22.80;41.30;;;;;;5071913;28;20578;-63
2021/10/28 07:08:09;;;;;;;1.37;1.10;;;22.80;41.20;;;;;;5071939;28;20380;-63
2021/10/28 07:10:36;;;;;;;1.50;1.20;;;22.80;41.30;;;;;;5071856;28;20418;-64
2021/10/28 07:13:09;;;;;;;1.50;1.20;;;22.80;41.30;;;;;;5071779;28;20472;-63
2021/10/28 07:15:53;;;;;;;1.33;1.10;;;22.80;41.30;;;;;;5071918;28;20526;-63
2021/10/28 07:18:26;;;;;;;1.30;1.02;;;22.80;41.20;;;;;;5053918;28;20435;-64
2021/10/28 08:19:50;;;;;;;2.30;1.30;;;23.00;40.80;;;;;;5074820;28;20545;-63
2021/10/28 08:30:11;;;;;;;1.95;1.30;;;23.10;40.80;;;;;;5074950;28;20989;-63
2021/10/28 08:32:38;;;;;;;2.08;1.40;;;23.10;40.80;;;;;;5074728;28;20423;-64
2021/10/28 08:35:06;;;;;;;2.00;1.30;;;23.10;40.80;;;;;;5074772;28;20444;-63
2021/10/28 08:40:10;;;;;;;1.60;1.20;;;23.10;40.80;;;;;;5074728;28;20390;-63
2021/10/28 08:42:38;;;;;;;1.73;1.40;;;23.20;40.50;;;;;;5074515;28;20380;-63
2021/10/28 08:45:05;;;;;;;1.90;1.40;;;23.20;40.70;;;;;;5074581;28;20383;-63
2021/10/28 08:47:31;;;;;;;1.95;1.45;;;23.20;40.70;;;;;;5074539;28;20387;-63
2021/10/28 08:50:06;;;;;;;1.70;1.33;;;23.30;40.40;;;;;;5074373;28;20400;-63
2021/10/28 08:52:47;;;;;;;2.00;1.40;;;23.30;40.40;;;;;;5074604;28;20457;-63
2021/10/28 08:58:28;;;;;;;1.90;1.40;;;23.30;40.20;;;;;;5074356;28;20491;-63
2021/10/28 09:51:52;;;;;;;1.48;1.13;;;23.60;40.10;;;;;;5073230;28;20430;-63
2021/10/28 09:57:47;;;;;;;1.80;1.40;;;23.60;40.20;;;;;;5055289;28;20391;-63
2021/10/28 10:00:20;;;;;;;1.95;1.25;;;23.60;40.00;;;;;;5073166;28;20437;-63
2021/10/28 10:02:54;;;;;;;1.80;1.30;;;23.60;40.40;;;;;;5055095;28;20392;-63
2021/10/28 10:05:20;;;;;;;1.42;1.10;;;23.60;40.30;;;;;;5073060;28;20402;-63
2021/10/28 10:07:47;;;;;;;1.48;1.15;;;23.60;40.40;;;;;;5072893;28;20413;-63
2021/10/28 10:10:15;;;;;;;1.60;1.30;;;23.60;40.40;;;;;;5072952;28;20499;-63
2021/10/28 10:12:44;;;;;;;1.50;1.10;;;23.70;40.50;;;;;;5073062;28;20488;-63
2021/10/28 10:15:10;;;;;;;1.77;1.30;;;23.60;40.60;;;;;;5072815;28;20406;-64
2021/10/28 10:17:35;;;;;;;1.45;1.00;;;23.60;40.60;;;;;;5072815;28;20472;-63
2021/10/28 10:20:09;;;;;;;1.60;1.10;;;23.70;40.70;;;;;;5072404;28;20483;-63
2021/10/28 10:22:48;;;;;;;1.45;1.00;;;23.70;40.60;;;;;;5072607;28;20478;-64
2021/10/28 10:26:04;;;;;;;1.58;1.10;;;23.70;40.60;;;;;;5072360;28;20384;-64
2021/10/28 12:43:34;;;;;;;5.65;2.20;;;24.10;39.40;;;;;;5074732;28;20378;-63
2021/10/28 13:59:20;;;;;;;2.78;1.50;;;24.90;39.10;;;;;;5093395;28;20740;-86
2021/10/28 14:15:46;;;;;;;5.20;1.60;;;25.00;39.10;;;;;;5093607;28;20396;-63
2021/10/28 15:30:24;;;;;;;3.88;1.90;;;24.80;41.60;;;;;;5091986;28;20523;-64
2021/10/28 15:33:30;;;;;;;4.90;1.97;;;24.90;41.70;;;;;;5092007;28;20397;-64
2021/10/28 15:35:41;;;;;;;6.55;2.10;;;24.80;41.70;;;;;;5092205;28;20382;-64
2021/10/28 16:23:04;;;;;;;12.30;2.47;;;25.00;50.20;;;;;;5076196;28;20430;-83
2021/10/28 16:25:31;;;;;;;8.18;3.05;;;25.00;49.30;;;;;;5076077;28;20540;-86
2021/10/28 16:27:56;;;;;;;12.15;3.35;;;25.00;46.80;;;;;;5075979;28;20434;-84
2021/10/28 16:30:22;;;;;;;10.13;2.97;;;25.00;47.60;;;;;;5058068;28;20820;-90
2021/10/28 16:32:48;;;;;;;12.73;3.40;;;25.00;48.90;;;;;;5075977;28;20897;-82
2021/10/28 16:35:14;;;;;;;17.77;3.38;;;25.10;50.10;;;;;;5076337;28;20384;-90
2021/10/28 16:37:40;;;;;;;10.77;3.42;;;25.10;48.40;;;;;;5075578;28;20413;-65
2021/10/28 16:40:07;;;;;;;12.17;3.50;;;25.10;48.90;;;;;;5075467;28;20496;-87
2021/10/28 16:42:33;;;;;;;12.05;3.60;;;25.10;49.30;;;;;;5075007;28;20482;-65
2021/10/28 16:44:59;;;;;;;8.30;3.45;;;25.20;49.00;;;;;;5074364;28;20463;-64
2021/10/28 16:47:27;;;;;;;15.52;3.40;;;25.10;49.40;;;;;;5075527;28;20487;-91
2021/10/28 16:49:53;;;;;;;8.43;3.17;;;25.20;49.30;;;;;;5074742;28;20865;-91
2021/10/28 16:52:18;;;;;;;10.40;2.92;;;25.30;49.40;;;;;;5074560;28;20427;-63
2021/10/28 16:54:44;;;;;;;12.70;3.97;;;25.30;49.20;;;;;;5075075;28;20392;-83
2021/10/28 16:57:10;;;;;;;14.68;5.70;;;25.30;48.20;;;;;;5057266;28;20395;-68
2021/10/28 16:59:35;;;;;;;21.43;7.37;;;25.40;50.80;;;;;;5076734;28;20386;-64
2021/10/28 17:02:01;;;;;;;22.65;6.57;;;25.50;50.60;;;;;;5079587;28;20392;-64
2021/10/28 17:04:27;;;;;;;19.85;6.07;;;25.50;50.00;;;;;;5086786;28;20469;-82
2021/10/28 17:06:53;;;;;;;23.60;6.93;;;25.50;51.10;;;;;;5094991;28;20928;-64
2021/10/28 17:09:20;;;;;;;12.17;4.00;;;25.60;52.30;;;;;;5094411;28;20855;-64
2021/10/28 17:11:46;;;;;;;13.88;4.05;;;25.60;50.10;;;;;;5094071;28;20508;-82
2021/10/28 17:14:11;;;;;;;14.37;4.20;;;25.60;49.40;;;;;;5094848;28;20477;-74
2021/10/28 17:16:41;;;;;;;14.25;4.22;;;25.50;48.90;;;;;;5075419;28;20891;-80
2021/10/28 17:19:07;;;;;;;12.27;4.37;;;25.50;48.90;;;;;;5094068;28;20382;-84
2021/10/28 17:21:33;;;;;;;12.40;4.20;;;25.50;48.40;;;;;;5094488;28;20390;-70
2021/10/28 17:24:01;;;;;;;11.48;3.85;;;25.50;48.40;;;;;;5093241;28;20894;-81
2021/10/28 17:26:31;;;;;;;11.82;3.70;;;25.50;47.50;;;;;;5083987;28;20387;-71
2021/10/28 17:29:01;;;;;;;12.40;3.97;;;25.50;46.70;;;;;;5074684;28;20401;-85
2021/10/28 17:31:32;;;;;;;13.70;3.83;;;25.40;46.10;;;;;;5063221;28;20419;-64
2021/10/28 17:33:59;;;;;;;11.52;3.30;;;25.30;46.40;;;;;;5057425;28;20402;-72
2021/10/28 17:36:27;;;;;;;15.00;3.65;;;25.30;44.80;;;;;;5064995;28;20399;-79
2021/10/28 17:38:52;;;;;;;13.27;3.15;;;25.20;45.60;;;;;;5080020;28;20376;-73
2021/10/28 17:41:19;;;;;;;11.38;3.20;;;25.20;45.90;;;;;;5081217;28;20887;-63
2021/10/28 17:43:48;;;;;;;9.57;3.47;;;25.20;46.00;;;;;;5081823;28;20920;-67
2021/10/28 17:46:15;;;;;;;9.98;3.33;;;25.20;46.10;;;;;;5059406;28;20404;-64
2021/10/28 17:48:41;;;;;;;8.63;3.20;;;25.20;46.00;;;;;;5079994;28;20384;-75
2021/10/28 17:51:07;;;;;;;12.10;3.60;;;25.20;46.10;;;;;;5079851;28;20409;-73
2021/10/28 17:53:33;;;;;;;9.67;3.17;;;25.20;46.00;;;;;;5081761;28;20946;-81
2021/10/28 17:55:59;;;;;;;9.27;3.50;;;25.30;45.80;;;;;;5062618;28;20486;-65
2021/10/28 17:58:25;;;;;;;6.90;2.88;;;25.20;45.80;;;;;;5096119;28;20418;-65
2021/10/28 18:00:51;;;;;;;7.43;3.05;;;25.20;46.10;;;;;;5081047;28;20394;-66
2021/10/28 18:03:20;;;;;;;6.60;3.53;;;25.30;45.80;;;;;;5063105;28;20736;-66
2021/10/28 18:05:46;;;;;;;7.30;3.00;;;25.20;48.60;;;;;;5062231;28;20800;-66
2021/10/28 18:08:14;;;;;;;7.05;3.15;;;25.20;46.60;;;;;;5060893;28;20881;-67
2021/10/28 18:10:40;;;;;;;6.60;2.72;;;25.20;46.10;;;;;;5080593;28;20834;-74
2021/10/28 18:13:08;;;;;;;7.45;3.15;;;25.20;45.70;;;;;;5067904;28;20397;-65
2021/10/28 18:15:33;;;;;;;7.68;2.85;;;25.20;45.50;;;;;;5059473;28;20398;-63
2021/10/28 18:18:01;;;;;;;6.90;2.60;;;25.20;45.50;;;;;;5061227;28;20399;-66
2021/10/28 18:20:30;;;;;;;6.45;2.75;;;25.20;44.70;;;;;;5069736;28;20404;-76
2021/10/28 18:22:58;;;;;;;6.63;2.92;;;25.20;43.30;;;;;;5076049;28;20376;-71
2021/10/28 18:25:24;;;;;;;4.97;2.65;;;25.10;42.80;;;;;;5082721;28;20412;-90
2021/10/28 18:27:55;;;;;;;7.60;2.63;;;25.00;42.40;;;;;;5082831;28;20392;-69
2021/10/28 18:30:22;;;;;;;4.72;2.80;;;24.90;42.50;;;;;;5063676;28;20437;-65
2021/10/28 18:32:48;;;;;;;5.07;2.70;;;24.90;42.50;;;;;;5076326;28;20423;-75
2021/10/28 18:35:14;;;;;;;5.60;2.85;;;24.90;42.60;;;;;;5057321;28;20394;-71
2021/10/28 18:37:41;;;;;;;3.80;3.07;;;24.90;42.50;;;;;;5079133;28;20399;-65
2021/10/28 18:40:08;;;;;;;4.72;2.70;;;24.80;42.40;;;;;;5076919;28;20390;-79
2021/10/28 18:42:34;;;;;;;4.70;2.80;;;24.80;42.40;;;;;;5059903;28;20446;-79
2021/10/28 18:45:01;;;;;;;8.50;3.03;;;24.70;42.50;;;;;;5082045;28;20814;-79
2021/10/28 18:47:28;;;;;;;4.60;3.03;;;24.70;42.60;;;;;;5078053;28;20411;-75
2021/10/28 18:49:54;;;;;;;4.53;3.00;;;24.80;42.40;;;;;;5078829;28;20883;-81
2021/10/28 18:52:19;;;;;;;3.65;2.90;;;24.80;42.30;;;;;;5082304;28;20466;-81
2021/10/28 18:54:46;;;;;;;5.05;3.22;;;24.80;42.20;;;;;;5074524;28;20400;-81
2021/10/28 18:57:14;;;;;;;3.95;2.95;;;24.70;42.30;;;;;;5077454;28;22189;-74
2021/10/28 18:59:40;;;;;;;4.20;3.15;;;24.70;42.20;;;;;;5075386;28;20388;-65
2021/10/28 19:02:07;;;;;;;4.13;3.17;;;24.80;42.10;;;;;;5086866;28;20887;-69
2021/10/28 19:04:34;;;;;;;5.00;3.33;;;24.70;41.90;;;;;;5080049;28;20854;-73
2021/10/28 19:07:02;;;;;;;4.45;3.45;;;24.70;42.10;;;;;;5082818;28;20401;-67
2021/10/28 19:09:28;;;;;;;5.45;3.20;;;24.70;42.10;;;;;;5071847;28;20419;-64
2021/10/28 19:11:54;;;;;;;5.80;3.50;;;24.70;41.60;;;;;;5077310;28;20406;-72
2021/10/28 19:14:20;;;;;;;5.57;3.50;;;24.70;41.50;;;;;;5079632;28;20757;-75
2021/10/28 19:16:45;;;;;;;5.68;3.78;;;24.60;41.40;;;;;;5081539;28;20453;-68
2021/10/28 19:19:11;;;;;;;5.40;3.50;;;24.70;41.60;;;;;;5080821;28;20536;-75
2021/10/28 19:21:40;;;;;;;5.28;3.50;;;24.70;41.70;;;;;;5060929;28;20487;-76
2021/10/28 19:24:08;;;;;;;4.57;3.50;;;24.60;41.70;;;;;;5084170;28;20515;-83
2021/10/28 19:26:35;;;;;;;5.68;3.50;;;24.70;41.60;;;;;;5076080;28;20738;-68
2021/10/28 19:29:05;;;;;;;4.55;3.10;;;24.70;42.00;;;;;;5063339;28;20747;-79
2021/10/28 19:31:34;;;;;;;4.90;3.35;;;24.70;41.80;;;;;;5086594;28;20406;-77
2021/10/28 19:34:02;;;;;;;4.75;3.70;;;24.70;41.50;;;;;;5093014;28;20938;-65
2021/10/28 19:36:43;;;;;;;4.32;3.70;;;24.70;41.70;;;;;;5092599;28;20890;-73
2021/10/28 19:42:11;;;;;;;4.88;3.78;;;24.70;41.70;;;;;;5081816;28;20455;-75
2021/10/28 19:47:23;;;;;;;4.22;3.70;;;24.70;41.50;;;;;;5056156;28;20431;-64
2021/10/28 19:49:49;;;;;;;4.50;3.58;;;24.70;41.20;;;;;;5054530;28;20428;-65
2021/10/28 19:52:16;;;;;;;4.60;3.30;;;24.70;41.50;;;;;;5055249;28;20452;-65
2021/10/28 19:54:45;;;;;;;5.53;3.30;;;24.70;41.00;;;;;;5055267;28;20389;-67
2021/10/28 19:57:23;;;;;;;5.63;3.50;;;24.70;41.20;;;;;;5070471;28;20918;-78
2021/10/28 19:59:57;;;;;;;4.03;3.42;;;24.70;41.10;;;;;;5069976;28;20385;-65
2021/10/28 20:03:26;;;;;;;4.30;3.20;;;24.70;41.10;;;;;;5054127;28;20393;-64
2021/10/28 20:05:24;;;;;;;4.18;3.20;;;24.70;41.10;;;;;;5047103;28;20404;-65
2021/10/28 20:13:21;;;;;;;3.88;3.05;;;24.70;40.60;;;;;;5055114;28;20434;-65
2021/10/28 20:21:10;;;;;;;3.47;2.67;;;24.70;40.60;;;;;;5054801;28;20488;-64
2021/10/28 20:23:35;;;;;;;3.53;3.00;;;24.60;40.60;;;;;;5055114;28;20476;-64
2021/10/28 20:26:01;;;;;;;3.23;2.93;;;24.60;40.70;;;;;;5055111;28;20922;-68
2021/10/28 20:28:28;;;;;;;4.13;3.03;;;24.60;40.70;;;;;;5070381;28;20409;-64
2021/10/28 20:33:21;;;;;;;4.07;2.70;;;24.60;40.80;;;;;;5054891;28;20405;-64
2021/10/28 20:38:30;;;;;;;4.10;2.50;;;24.60;40.80;;;;;;5054707;28;20488;-65
2021/10/28 20:40:56;;;;;;;5.10;2.90;;;24.60;40.80;;;;;;5054435;28;20397;-65
2021/10/28 20:43:22;;;;;;;4.03;2.70;;;24.60;40.90;;;;;;5037438;28;20409;-71
2021/10/28 20:45:48;;;;;;;5.45;2.78;;;24.60;41.00;;;;;;5071634;28;20872;-64
2021/10/28 20:48:14;;;;;;;3.60;2.80;;;24.60;41.00;;;;;;5084879;28;20386;-65
2021/10/28 20:50:40;;;;;;;3.20;2.72;;;24.60;41.00;;;;;;5086585;28;20496;-86
2021/10/28 20:53:06;;;;;;;3.85;2.63;;;24.60;41.00;;;;;;5092279;28;20388;-85
2021/10/28 20:55:32;;;;;;;3.45;2.58;;;24.60;40.90;;;;;;5067039;28;20396;-72
2021/10/28 20:57:58;;;;;;;3.28;2.40;;;24.60;41.00;;;;;;5095543;28;20386;-86
2021/10/28 21:00:25;;;;;;;3.50;2.80;;;24.60;41.00;;;;;;5095104;28;20464;-72
2021/10/28 21:02:51;;;;;;;3.13;2.80;;;24.60;40.90;;;;;;5077141;28;20459;-85
2021/10/28 21:05:21;;;;;;;2.90;2.45;;;24.60;40.90;;;;;;5095432;28;20390;-86
2021/10/28 21:07:50;;;;;;;3.00;2.38;;;24.60;40.90;;;;;;5095252;28;20374;-85
2021/10/28 21:10:18;;;;;;;2.70;2.30;;;24.60;40.80;;;;;;5077066;28;20493;-64
2021/10/28 21:12:44;;;;;;;2.95;2.50;;;24.60;40.80;;;;;;5076226;28;20402;-66
2021/10/28 21:15:11;;;;;;;3.42;2.30;;;24.60;40.80;;;;;;5094562;28;20391;-72
2021/10/28 21:17:37;;;;;;;2.83;2.33;;;24.60;40.90;;;;;;5094563;28;20450;-85
2021/10/28 21:20:05;;;;;;;3.28;2.65;;;24.60;40.90;;;;;;5094299;28;20393;-65
2021/10/28 21:22:31;;;;;;;3.58;2.30;;;24.60;40.90;;;;;;5094185;28;20382;-64
2021/10/28 21:24:56;;;;;;;3.72;2.45;;;24.60;40.90;;;;;;5094152;28;20851;-65
2021/10/28 21:27:22;;;;;;;3.13;2.40;;;24.60;40.90;;;;;;5094538;28;20791;-64
2021/10/28 21:29:49;;;;;;;2.92;2.10;;;24.60;41.50;;;;;;5094260;28;20390;-65
2021/10/28 21:32:15;;;;;;;3.30;2.30;;;24.60;40.90;;;;;;5094149;28;20413;-65
2021/10/28 21:34:43;;;;;;;3.13;2.30;;;24.50;40.90;;;;;;5094093;28;20418;-65
2021/10/28 21:37:11;;;;;;;3.08;2.17;;;24.50;40.90;;;;;;5093964;28;20443;-76
2021/10/28 21:39:38;;;;;;;3.30;2.25;;;24.50;40.80;;;;;;5094183;28;20409;-65
2021/10/28 21:42:04;;;;;;;3.00;2.47;;;24.50;40.80;;;;;;5076040;28;20393;-64
2021/10/28 21:44:30;;;;;;;2.40;2.00;;;24.50;40.90;;;;;;5093874;28;20378;-66
2021/10/28 21:46:56;;;;;;;6.60;2.40;;;24.50;40.90;;;;;;5075705;28;20401;-86
2021/10/28 21:49:23;;;;;;;3.10;2.40;;;24.50;40.80;;;;;;5093679;28;20386;-65
2021/10/28 21:51:54;;;;;;;2.60;2.20;;;24.50;40.80;;;;;;5075593;28;20770;-65
2021/10/28 21:55:01;;;;;;;2.55;2.00;;;24.50;40.70;;;;;;5059348;28;20471;-64
2021/10/28 22:02:46;;;;;;;2.42;1.95;;;24.40;40.70;;;;;;5073126;28;20406;-65
2021/10/28 22:05:58;;;;;;;3.08;2.15;;;24.40;40.70;;;;;;5072598;28;20474;-65
2021/10/28 22:24:41;;;;;;;2.92;2.30;;;24.40;40.30;;;;;;5073164;28;20419;-65
2021/10/28 22:27:07;;;;;;;3.00;2.10;;;24.30;40.30;;;;;;5072942;28;20384;-64
2021/10/28 22:29:33;;;;;;;3.17;2.20;;;24.30;40.60;;;;;;5072827;28;20445;-64
2021/10/28 22:31:59;;;;;;;2.40;1.90;;;24.40;40.60;;;;;;5072946;28;20461;-65
2021/10/28 22:34:25;;;;;;;2.92;2.10;;;24.30;40.60;;;;;;5073059;28;20392;-64
2021/10/28 22:36:54;;;;;;;3.60;2.27;;;24.30;40.50;;;;;;5055339;28;20427;-65